createdAt,value
2019-01-24T00:02:27.162Z,-5.60
2019-01-24T00:04:55.344Z,-5.60
2019-01-24T00:07:23.589Z,-5.60
2019-01-24T00:09:51.739Z,-5.70
2019-01-24T00:12:19.800Z,-5.80
2019-01-24T00:14:47.867Z,-5.80
2019-01-24T00:17:15.907Z,-5.80
2019-01-24T00:19:43.941Z,-5.90
2019-01-24T00:22:12.097Z,-5.90
2019-01-24T00:24:40.152Z,-5.90
2019-01-24T00:29:36.040Z,-6.00
2019-01-24T00:32:05.477Z,-6.10
2019-01-24T00:34:35.672Z,-6.20
2019-01-24T00:37:03.936Z,-6.20
2019-01-24T00:39:31.958Z,-6.20
2019-01-24T00:42:00.009Z,-6.30
2019-01-24T00:44:28.165Z,-6.30
2019-01-24T00:46:56.631Z,-6.40
2019-01-24T00:49:24.876Z,-6.40
2019-01-24T00:51:52.915Z,-6.40
2019-01-24T00:54:23.208Z,-6.50
2019-01-24T00:56:51.292Z,-6.50
2019-01-24T00:59:19.551Z,-6.50
2019-01-24T01:01:52.870Z,-6.60
2019-01-24T01:04:20.909Z,-6.60
2019-01-24T01:06:49.057Z,-6.60
2019-01-24T01:09:17.101Z,-6.70
2019-01-24T01:11:45.167Z,-6.70
2019-01-24T01:14:15.031Z,-6.70
2019-01-24T01:16:42.952Z,-6.80
2019-01-24T01:19:15.689Z,-6.80
2019-01-24T01:21:44.038Z,-6.80
2019-01-24T01:24:11.989Z,-6.90
2019-01-24T01:26:39.851Z,-6.90
2019-01-24T01:29:08.103Z,-6.90
2019-01-24T01:31:36.193Z,-6.90
2019-01-24T01:34:04.263Z,-6.90
2019-01-24T01:36:32.363Z,-6.90
2019-01-24T01:39:00.439Z,-6.90
2019-01-24T01:41:28.657Z,-6.90
2019-01-24T01:43:56.660Z,-6.90
2019-01-24T01:46:24.672Z,-6.90
2019-01-24T01:48:53.041Z,-6.90
2019-01-24T01:51:21.093Z,-6.90
2019-01-24T01:53:49.138Z,-6.90
2019-01-24T01:56:17.208Z,-7.00
2019-01-24T01:58:46.644Z,-7.00
2019-01-24T02:01:14.924Z,-7.10
2019-01-24T02:03:44.092Z,-7.10
2019-01-24T02:06:12.250Z,-7.20
2019-01-24T02:08:40.332Z,-7.20
2019-01-24T02:11:08.412Z,-7.20
2019-01-24T02:13:43.376Z,-7.30
2019-01-24T02:16:11.376Z,-7.30
2019-01-24T02:18:39.484Z,-7.30
2019-01-24T02:21:07.548Z,-7.30
2019-01-24T02:23:35.829Z,-7.30
2019-01-24T02:26:04.072Z,-7.20
2019-01-24T02:28:33.331Z,-7.20
2019-01-24T02:31:01.348Z,-7.20
2019-01-24T02:33:30.996Z,-7.20
2019-01-24T02:35:59.161Z,-7.10
2019-01-24T02:38:27.092Z,-7.10
2019-01-24T02:40:56.251Z,-7.00
2019-01-24T02:43:24.440Z,-7.00
2019-01-24T02:45:52.501Z,-7.00
2019-01-24T02:48:20.549Z,-7.00
2019-01-24T02:50:48.619Z,-7.00
2019-01-24T02:53:16.658Z,-7.00
2019-01-24T02:55:46.433Z,-7.00
2019-01-24T02:58:14.688Z,-7.00
2019-01-24T03:00:42.764Z,-7.10
2019-01-24T03:03:10.806Z,-7.10
2019-01-24T03:05:38.885Z,-7.10
2019-01-24T03:08:09.145Z,-7.10
2019-01-24T03:10:37.183Z,-7.20
2019-01-24T03:13:05.228Z,-7.20
2019-01-24T03:15:33.331Z,-7.20
2019-01-24T03:18:01.347Z,-7.20
2019-01-24T03:20:29.291Z,-7.20
2019-01-24T03:23:12.483Z,-7.20
2019-01-24T03:25:48.852Z,-7.20
2019-01-24T03:28:16.784Z,-7.20
2019-01-24T03:30:44.817Z,-7.20
2019-01-24T03:33:12.865Z,-7.30
2019-01-24T03:35:40.908Z,-7.30
2019-01-24T03:38:08.964Z,-7.30
2019-01-24T03:40:37.019Z,-7.40
2019-01-24T03:43:05.171Z,-7.40
2019-01-24T03:45:33.187Z,-7.50
2019-01-24T03:48:01.300Z,-7.50
2019-01-24T03:50:29.313Z,-7.50
2019-01-24T03:52:57.476Z,-7.60
2019-01-24T03:55:25.926Z,-7.60
2019-01-24T03:57:53.892Z,-7.60
2019-01-24T04:00:25.485Z,-7.70
2019-01-24T04:02:53.423Z,-7.70
2019-01-24T04:05:23.741Z,-7.70
2019-01-24T04:07:51.988Z,-7.60
2019-01-24T04:10:21.116Z,-7.70
2019-01-24T04:12:49.641Z,-7.70
2019-01-24T04:15:27.571Z,-7.70
2019-01-24T04:17:55.639Z,-7.80
2019-01-24T04:20:23.679Z,-7.80
2019-01-24T04:22:51.792Z,-7.80
2019-01-24T04:25:19.847Z,-7.80
2019-01-24T04:27:47.877Z,-7.90
2019-01-24T04:30:20.942Z,-7.90
2019-01-24T04:32:48.985Z,-7.90
2019-01-24T04:35:20.542Z,-8.00
2019-01-24T04:37:48.472Z,-8.00
2019-01-24T04:40:17.386Z,-8.00
2019-01-24T04:42:45.381Z,-8.00
2019-01-24T04:45:14.620Z,-8.10
2019-01-24T04:47:44.424Z,-8.10
2019-01-24T04:50:14.060Z,-8.10
2019-01-24T04:52:42.009Z,-8.10
2019-01-24T04:55:12.056Z,-8.10
2019-01-24T04:57:40.031Z,-8.20
2019-01-24T05:00:12.515Z,-8.20
2019-01-24T05:02:41.680Z,-8.20
2019-01-24T05:05:09.876Z,-8.20
2019-01-24T05:07:37.921Z,-8.30
2019-01-24T05:10:06.207Z,-8.30
2019-01-24T05:12:34.425Z,-8.30
2019-01-24T05:15:03.156Z,-8.30
2019-01-24T05:17:31.088Z,-8.30
2019-01-24T05:19:59.220Z,-8.40
2019-01-24T05:22:27.192Z,-8.40
2019-01-24T05:24:55.553Z,-8.40
2019-01-24T05:27:23.692Z,-8.40
2019-01-24T05:29:51.651Z,-8.40
2019-01-24T05:32:19.895Z,-8.50
2019-01-24T05:34:47.767Z,-8.50
2019-01-24T05:37:15.707Z,-8.50
2019-01-24T05:39:43.745Z,-8.60
2019-01-24T05:42:11.862Z,-8.60
2019-01-24T05:44:39.903Z,-8.60
2019-01-24T05:47:07.728Z,-8.70
2019-01-24T05:49:35.752Z,-8.70
2019-01-24T05:52:03.797Z,-8.80
2019-01-24T05:54:31.925Z,-8.70
2019-01-24T05:56:59.955Z,-8.80
2019-01-24T05:59:27.984Z,-8.80
2019-01-24T06:01:56.627Z,-8.90
2019-01-24T06:04:28.354Z,-8.90
2019-01-24T06:06:56.260Z,-8.90
2019-01-24T06:09:27.232Z,-8.90
2019-01-24T06:11:58.184Z,-8.90
2019-01-24T06:14:26.363Z,-9.00
2019-01-24T06:16:57.099Z,-8.90
2019-01-24T06:19:25.237Z,-8.90
2019-01-24T06:21:53.267Z,-9.00
2019-01-24T06:24:22.441Z,-9.00
2019-01-24T06:26:50.487Z,-9.00
2019-01-24T06:29:18.439Z,-9.00
2019-01-24T06:31:46.541Z,-9.00
2019-01-24T06:34:14.544Z,-9.10
2019-01-24T06:36:42.568Z,-9.10
2019-01-24T06:39:10.715Z,-9.10
2019-01-24T06:41:39.840Z,-9.10
2019-01-24T06:44:07.891Z,-9.10
2019-01-24T06:46:35.832Z,-9.10
2019-01-24T06:49:03.987Z,-9.10
2019-01-24T06:51:31.997Z,-9.10
2019-01-24T06:53:59.999Z,-9.10
2019-01-24T06:56:28.200Z,-9.10
2019-01-24T06:58:56.128Z,-9.20
2019-01-24T07:01:24.001Z,-9.20
2019-01-24T07:03:52.062Z,-9.20
2019-01-24T07:06:20.072Z,-9.20
2019-01-24T07:08:48.216Z,-9.20
2019-01-24T07:11:16.235Z,-9.30
2019-01-24T07:13:44.301Z,-9.30
2019-01-24T07:16:15.348Z,-9.30
2019-01-24T07:18:43.280Z,-9.30
2019-01-24T07:21:14.225Z,-9.30
2019-01-24T07:23:42.160Z,-9.30
2019-01-24T07:26:11.992Z,-9.30
2019-01-24T07:28:40.121Z,-9.30
2019-01-24T07:31:08.164Z,-9.30
2019-01-24T07:33:36.101Z,-9.40
2019-01-24T07:36:04.734Z,-9.30
2019-01-24T07:38:32.787Z,-9.40
2019-01-24T07:41:00.779Z,-9.30
2019-01-24T07:43:28.800Z,-9.30
2019-01-24T07:45:56.924Z,-9.30
2019-01-24T07:48:24.983Z,-9.30
2019-01-24T07:50:55.822Z,-9.30
2019-01-24T07:53:23.853Z,-9.30
2019-01-24T07:55:52.011Z,-9.30
2019-01-24T07:58:20.152Z,-9.20
2019-01-24T08:00:48.376Z,-9.20
2019-01-24T08:03:16.528Z,-9.20
2019-01-24T08:05:44.613Z,-9.20
2019-01-24T08:08:12.656Z,-9.20
2019-01-24T08:10:40.726Z,-9.10
2019-01-24T08:13:08.759Z,-9.10
2019-01-24T08:15:36.699Z,-9.00
2019-01-24T08:18:05.060Z,-9.00
2019-01-24T08:20:34.119Z,-8.90
2019-01-24T08:23:02.294Z,-8.90
2019-01-24T08:25:30.327Z,-8.80
2019-01-24T08:27:58.169Z,-8.80
2019-01-24T08:30:33.384Z,-8.80
2019-01-24T08:33:01.616Z,-8.70
2019-01-24T08:35:29.604Z,-8.70
2019-01-24T08:37:57.655Z,-8.60
2019-01-24T08:40:25.583Z,-8.50
2019-01-24T08:42:53.651Z,-8.50
2019-01-24T08:45:21.672Z,-8.40
2019-01-24T08:47:49.683Z,-8.40
2019-01-24T08:50:19.325Z,-8.30
2019-01-24T08:52:47.791Z,-8.30
2019-01-24T08:55:41.061Z,-8.20
2019-01-24T08:58:09.700Z,-8.20
2019-01-24T09:00:37.811Z,-8.10
2019-01-24T09:03:05.880Z,-8.10
2019-01-24T09:05:33.950Z,-8.00
2019-01-24T09:08:01.941Z,-7.90
2019-01-24T09:10:32.412Z,-7.80
2019-01-24T09:13:00.555Z,-7.80
2019-01-24T11:52:15.937Z,-2.90
2019-01-24T11:54:43.984Z,-2.90
2019-01-24T11:57:12.083Z,-2.90
2019-01-24T11:59:40.376Z,-2.80
2019-01-24T12:02:08.508Z,-2.80
2019-01-24T12:04:36.471Z,-2.80
2019-01-24T12:07:04.637Z,-2.80
2019-01-24T12:09:32.908Z,-2.80
2019-01-24T12:12:00.980Z,-2.80
2019-01-24T12:14:29.121Z,-2.80
2019-01-24T12:16:57.416Z,-2.80
2019-01-24T12:19:25.465Z,-2.80
2019-01-24T12:21:53.512Z,-2.80
2019-01-24T12:24:21.648Z,-2.80
2019-01-24T12:26:49.692Z,-2.80
2019-01-24T12:29:17.767Z,-2.80
2019-01-24T12:31:45.876Z,-2.80
2019-01-24T12:34:14.243Z,-2.80
2019-01-24T12:36:42.262Z,-2.80
2019-01-24T12:39:10.380Z,-2.80
2019-01-24T12:41:38.412Z,-2.80
2019-01-24T12:44:06.492Z,-2.80
2019-01-24T12:46:34.504Z,-2.80
2019-01-24T12:49:02.368Z,-2.90
2019-01-24T12:51:30.323Z,-2.90
2019-01-24T12:53:58.362Z,-2.90
2019-01-24T12:56:26.400Z,-3.00
2019-01-24T12:58:54.352Z,-3.00
2019-01-24T13:01:22.562Z,-3.00
2019-01-24T13:03:50.703Z,-3.10
2019-01-24T13:06:18.747Z,-3.10
2019-01-24T13:08:46.776Z,-3.10
2019-01-24T13:11:14.920Z,-3.20
2019-01-24T13:13:42.961Z,-3.20
2019-01-24T13:16:11.000Z,-3.20
2019-01-24T13:18:39.037Z,-3.20
2019-01-24T13:21:07.024Z,-3.30
2019-01-24T13:23:35.244Z,-3.30
2019-01-24T13:26:03.725Z,-3.30
2019-01-24T13:28:43.806Z,-3.40
2019-01-24T13:31:12.090Z,-3.40
2019-01-24T13:33:40.174Z,-3.40
2019-01-24T13:36:08.740Z,-3.50
2019-01-24T13:38:36.911Z,-3.50
2019-01-24T13:41:04.980Z,-3.50
2019-01-24T13:43:33.019Z,-3.50
2019-01-24T13:46:01.169Z,-3.60
2019-01-24T13:48:29.211Z,-3.60
2019-01-24T13:50:57.260Z,-3.60
2019-01-24T13:53:25.324Z,-3.70
2019-01-24T13:55:53.390Z,-3.70
2019-01-24T13:58:21.480Z,-3.70
2019-01-24T14:00:49.644Z,-3.80
2019-01-24T14:03:42.131Z,-3.80
2019-01-24T14:06:09.096Z,-3.90
2019-01-24T14:08:37.316Z,-3.90
2019-01-24T14:11:05.461Z,-4.00
2019-01-24T14:13:33.598Z,-4.00
2019-01-24T14:16:01.936Z,-4.10
2019-01-24T14:18:29.979Z,-4.20
2019-01-24T14:20:57.980Z,-4.20
2019-01-24T14:23:26.139Z,-4.30
2019-01-24T14:25:54.171Z,-4.40
2019-01-24T14:28:22.295Z,-4.40
2019-01-24T14:30:50.557Z,-4.50
2019-01-24T14:33:18.407Z,-4.60
2019-01-24T14:35:46.532Z,-4.70
2019-01-24T14:38:14.648Z,-4.80
2019-01-24T14:40:42.868Z,-4.80
2019-01-24T14:43:11.036Z,-4.90
2019-01-24T14:45:40.145Z,-5.00
2019-01-24T14:48:08.649Z,-5.10
2019-01-24T14:50:36.681Z,-5.20
2019-01-24T14:53:04.934Z,-5.30
2019-01-24T14:55:32.891Z,-5.30
2019-01-24T14:58:00.935Z,-5.40
2019-01-24T15:00:44.130Z,-5.40
2019-01-24T15:03:12.160Z,-5.50
2019-01-24T15:05:40.212Z,-5.60
2019-01-24T15:08:08.444Z,-5.60
2019-01-24T15:10:36.765Z,-5.70
2019-01-24T15:13:05.404Z,-5.70
2019-01-24T15:15:33.439Z,-5.80
2019-01-24T15:18:01.466Z,-5.80
2019-01-24T15:20:29.553Z,-5.90
2019-01-24T15:22:57.367Z,-5.90
2019-01-24T15:25:25.392Z,-6.00
2019-01-24T15:27:53.414Z,-6.00
2019-01-24T15:30:22.455Z,-6.00
2019-01-24T15:32:50.280Z,-6.10
2019-01-24T15:35:18.692Z,-6.10
2019-01-24T15:37:46.611Z,-6.20
2019-01-24T15:40:17.477Z,-6.20
2019-01-24T15:42:45.520Z,-6.20
2019-01-24T15:45:15.676Z,-6.30
2019-01-24T15:47:43.915Z,-6.30
2019-01-24T15:50:14.159Z,-6.40
2019-01-24T15:52:42.080Z,-6.40
2019-01-24T15:55:10.360Z,-6.50
2019-01-24T15:57:38.325Z,-6.50
2019-01-24T16:00:13.843Z,-6.50
2019-01-24T16:02:41.793Z,-6.60
2019-01-24T16:05:09.950Z,-6.60
2019-01-24T16:07:37.967Z,-6.70
2019-01-24T16:10:08.211Z,-6.70
2019-01-24T16:12:36.244Z,-6.80
2019-01-24T16:15:07.205Z,-6.80
2019-01-24T16:17:35.448Z,-6.90
2019-01-24T16:20:06.083Z,-6.90
2019-01-24T16:22:34.021Z,-7.00
2019-01-24T16:25:02.146Z,-7.00
2019-01-24T16:27:30.163Z,-7.00
2019-01-24T16:29:58.099Z,-7.10
2019-01-24T16:32:26.049Z,-7.10
2019-01-24T16:34:54.072Z,-7.10
2019-01-24T16:37:22.248Z,-7.10
2019-01-24T16:39:50.263Z,-7.10
2019-01-24T16:42:18.100Z,-7.20
2019-01-24T16:44:46.116Z,-7.20
2019-01-24T16:47:14.143Z,-7.20
2019-01-24T16:49:42.280Z,-7.30
2019-01-24T16:52:10.299Z,-7.30
2019-01-24T16:54:38.320Z,-7.30
2019-01-24T16:57:06.448Z,-7.30
2019-01-24T16:59:34.565Z,-7.40
2019-01-24T17:02:02.664Z,-7.40
2019-01-24T17:04:30.688Z,-7.40
2019-01-24T17:06:58.547Z,-7.40
2019-01-24T17:09:26.795Z,-7.50
2019-01-24T17:11:54.835Z,-7.50
2019-01-24T17:14:22.972Z,-7.60
2019-01-24T17:16:51.008Z,-7.60
2019-01-24T17:19:19.136Z,-7.60
2019-01-24T17:21:47.144Z,-7.60
2019-01-24T17:24:15.291Z,-7.60
2019-01-24T17:26:43.312Z,-7.70
2019-01-24T17:29:11.153Z,-7.70
2019-01-24T17:31:39.476Z,-7.70
2019-01-24T17:34:07.480Z,-7.70
2019-01-24T17:36:35.607Z,-7.70
2019-01-24T17:39:07.877Z,-7.80
2019-01-24T17:41:36.072Z,-7.80
2019-01-24T17:44:05.521Z,-7.80
2019-01-24T17:46:33.552Z,-7.90
2019-01-24T17:49:01.764Z,-7.90
2019-01-24T17:51:29.900Z,-7.90
2019-01-24T17:53:58.032Z,-7.90
2019-01-24T17:56:25.951Z,-7.90
2019-01-24T17:58:53.808Z,-7.90
2019-01-24T18:01:21.828Z,-7.90
2019-01-24T18:03:49.700Z,-7.90
2019-01-24T18:06:17.677Z,-7.90
2019-01-24T18:08:45.772Z,-8.00
2019-01-24T18:11:13.856Z,-8.00
2019-01-24T18:13:41.900Z,-8.00
2019-01-24T18:16:09.944Z,-8.00
2019-01-24T18:18:38.046Z,-8.00
2019-01-24T18:21:06.228Z,-8.00
2019-01-24T18:23:34.316Z,-8.00
2019-01-24T18:26:02.228Z,-8.00
2019-01-24T18:28:33.294Z,-8.00
2019-01-24T18:31:01.424Z,-8.10
2019-01-24T18:33:30.963Z,-8.10
2019-01-24T18:35:59.021Z,-8.10
2019-01-24T18:38:27.060Z,-8.10
2019-01-24T18:40:55.276Z,-8.10
2019-01-24T18:43:27.314Z,-8.20
2019-01-24T18:45:58.092Z,-8.20
2019-01-24T18:48:26.213Z,-8.20
2019-01-24T18:50:54.333Z,-8.20
2019-01-24T18:53:22.360Z,-8.20
2019-01-24T18:55:50.519Z,-8.30
2019-01-24T18:58:18.708Z,-8.30
2019-01-24T19:00:47.204Z,-8.30
2019-01-24T19:03:15.483Z,-8.30
2019-01-24T19:05:44.164Z,-8.30
2019-01-24T19:08:12.832Z,-8.40
2019-01-24T19:10:42.468Z,-8.40
2019-01-24T19:13:10.679Z,-8.40
2019-01-24T19:15:40.539Z,-8.40
2019-01-24T19:18:10.374Z,-8.40
2019-01-24T19:20:38.333Z,-8.40
2019-01-24T19:23:06.360Z,-8.40
2019-01-24T19:25:34.189Z,-8.50
2019-01-24T19:28:02.572Z,-8.50
2019-01-24T19:30:30.716Z,-8.50
2019-01-24T19:32:59.312Z,-8.50
2019-01-24T19:35:27.713Z,-8.50
2019-01-24T19:37:55.948Z,-8.50
2019-01-24T19:40:24.659Z,-8.50
2019-01-24T19:42:52.776Z,-8.50
2019-01-24T19:45:22.188Z,-8.50
2019-01-24T19:47:50.416Z,-8.50
2019-01-24T19:50:20.478Z,-8.50
2019-01-24T19:52:48.555Z,-8.50
2019-01-24T19:55:16.792Z,-8.50
2019-01-24T19:57:44.913Z,-8.50
2019-01-24T20:00:15.621Z,-8.60
2019-01-24T20:02:43.780Z,-8.60
2019-01-24T20:05:12.112Z,-8.60
2019-01-24T20:07:40.151Z,-8.60
2019-01-24T20:10:11.085Z,-8.60
2019-01-24T20:12:39.156Z,-8.60
2019-01-24T20:15:09.740Z,-8.70
2019-01-24T20:17:37.688Z,-8.70
2019-01-24T20:20:07.156Z,-8.70
2019-01-24T20:22:35.086Z,-8.70
2019-01-24T20:25:04.724Z,-8.70
2019-01-24T20:27:32.705Z,-8.70
2019-01-24T20:30:00.536Z,-8.70
2019-01-24T20:32:28.588Z,-8.80
2019-01-24T20:34:56.653Z,-8.80
2019-01-24T20:37:24.776Z,-8.80
2019-01-24T20:39:52.743Z,-8.80
2019-01-24T20:42:20.901Z,-8.80
2019-01-24T20:44:48.956Z,-8.80
2019-01-24T20:47:16.986Z,-8.80
2019-01-24T20:49:45.176Z,-8.80
2019-01-24T20:52:13.121Z,-8.80
2019-01-24T20:54:41.284Z,-8.80
2019-01-24T20:57:09.117Z,-8.80
2019-01-24T20:59:37.048Z,-8.80
2019-01-24T21:02:05.484Z,-8.80
2019-01-24T21:04:33.426Z,-8.80
2019-01-24T21:07:01.277Z,-8.80
2019-01-24T21:09:29.352Z,-8.80
2019-01-24T21:11:57.392Z,-8.90
2019-01-24T21:14:26.737Z,-8.90
2019-01-24T21:16:54.788Z,-8.90
2019-01-24T21:19:22.660Z,-8.90
2019-01-24T21:21:50.592Z,-8.90
2019-01-24T21:24:18.431Z,-8.90
2019-01-24T21:26:46.448Z,-8.90
2019-01-24T21:29:14.295Z,-8.90
2019-01-24T21:31:42.363Z,-8.90
2019-01-24T21:34:10.393Z,-9.00
2019-01-24T21:36:38.439Z,-8.90
2019-01-24T21:39:08.444Z,-8.90
2019-01-24T21:41:36.468Z,-8.90
2019-01-24T21:44:04.682Z,-8.90
2019-01-24T21:46:32.718Z,-9.00
2019-01-24T21:49:00.944Z,-9.00
2019-01-24T21:51:29.006Z,-9.00
2019-01-24T21:53:57.024Z,-9.10
2019-01-24T21:56:24.964Z,-9.10
2019-01-24T21:58:53.307Z,-9.10
2019-01-24T22:01:21.356Z,-9.20
2019-01-24T22:03:49.400Z,-9.20
2019-01-24T22:06:19.164Z,-9.20
2019-01-24T22:08:47.200Z,-9.20
2019-01-24T22:11:15.112Z,-9.30
2019-01-24T22:13:42.941Z,-9.30
2019-01-24T22:16:11.085Z,-9.30
2019-01-24T22:18:39.124Z,-9.30
2019-01-24T22:21:07.080Z,-9.20
2019-01-24T22:23:35.215Z,-9.20
2019-01-24T22:26:03.699Z,-9.20
2019-01-24T22:28:31.972Z,-9.10
2019-01-24T22:31:01.396Z,-9.10
2019-01-24T22:33:29.343Z,-9.00
2019-01-24T22:35:57.427Z,-9.00
2019-01-24T22:38:25.429Z,-8.90
2019-01-24T22:40:53.462Z,-8.90
2019-01-24T22:43:21.596Z,-8.90
2019-01-24T22:45:49.624Z,-8.90
2019-01-24T22:48:17.503Z,-8.80
2019-01-24T22:50:45.591Z,-8.80
2019-01-24T22:53:13.431Z,-8.70
2019-01-24T22:55:41.679Z,-8.70
2019-01-24T22:58:09.722Z,-8.60
2019-01-24T23:00:59.436Z,-8.50
2019-01-24T23:03:37.231Z,-8.50
2019-01-24T23:06:05.481Z,-8.40
2019-01-24T23:08:33.659Z,-8.40
2019-01-24T23:11:01.705Z,-8.40
2019-01-24T23:13:29.767Z,-8.30
2019-01-24T23:15:57.787Z,-8.30
2019-01-24T23:18:25.914Z,-8.30
2019-01-24T23:20:53.928Z,-8.30
2019-01-24T23:23:22.076Z,-8.20
2019-01-24T23:25:51.148Z,-8.20
2019-01-24T23:28:19.072Z,-8.20
2019-01-24T23:30:47.319Z,-8.10
2019-01-24T23:33:17.588Z,-8.10
2019-01-24T23:35:45.519Z,-8.10
2019-01-24T23:38:13.437Z,-8.10
2019-01-24T23:40:41.652Z,-8.10
2019-01-24T23:43:09.675Z,-8.00
2019-01-24T23:45:37.838Z,-8.00
2019-01-24T23:48:05.858Z,-8.00
2019-01-24T23:50:33.906Z,-8.00
2019-01-24T23:53:01.949Z,-8.00
2019-01-24T23:55:30.075Z,-7.90
2019-01-24T23:57:58.097Z,-7.90
